sensor_id;sensor_type;location;lat;lon;timestamp;temperature;humidity
52543;DHT22;38449;52.696;6.186;2023-05-10T00:02:00;13.40;99.90
52543;DHT22;38449;52.696;6.186;2023-05-10T00:04:26;13.40;99.90
52543;DHT22;38449;52.696;6.186;2023-05-10T00:06:53;13.50;99.90
52543;DHT22;38449;52.696;6.186;2023-05-10T00:09:20;13.50;99.90
52543;DHT22;38449;52.696;6.186;2023-05-10T00:11:46;13.30;99.90
52543;DHT22;38449;52.696;6.186;2023-05-10T00:14:12;13.50;99.90
52543;DHT22;38449;52.696;6.186;2023-05-10T00:16:38;13.50;99.90
52543;DHT22;38449;52.696;6.186;2023-05-10T00:19:05;13.40;99.90
52543;DHT22;38449;52.696;6.186;2023-05-10T00:21:31;13.40;99.90
52543;DHT22;38449;52.696;6.186;2023-05-10T00:23:58;13.50;99.90
52543;DHT22;38449;52.696;6.186;2023-05-10T00:26:24;13.50;99.90
52543;DHT22;38449;52.696;6.186;2023-05-10T00:28:50;13.40;99.90
52543;DHT22;38449;52.696;6.186;2023-05-10T00:31:17;13.30;99.90
52543;DHT22;38449;52.696;6.186;2023-05-10T00:33:43;13.30;99.90
52543;DHT22;38449;52.696;6.186;2023-05-10T00:36:09;13.50;99.90
52543;DHT22;38449;52.696;6.186;2023-05-10T00:38:35;13.40;99.90
52543;DHT22;38449;52.696;6.186;2023-05-10T00:41:02;13.50;99.90
52543;DHT22;38449;52.696;6.186;2023-05-10T00:43:28;13.40;99.90
52543;DHT22;38449;52.696;6.186;2023-05-10T00:45:54;13.30;99.90
52543;DHT22;38449;52.696;6.186;2023-05-10T00:48:21;13.30;99.90
52543;DHT22;38449;52.696;6.186;2023-05-10T00:50:48;13.30;99.90
52543;DHT22;38449;52.696;6.186;2023-05-10T00:53:14;13.40;99.90
52543;DHT22;38449;52.696;6.186;2023-05-10T00:55:41;13.30;99.90
52543;DHT22;38449;52.696;6.186;2023-05-10T00:58:07;13.30;99.90
52543;DHT22;38449;52.696;6.186;2023-05-10T01:00:34;13.30;99.90
52543;DHT22;38449;52.696;6.186;2023-05-10T01:03:01;13.20;99.90
52543;DHT22;38449;52.696;6.186;2023-05-10T01:05:28;13.20;99.90
52543;DHT22;38449;52.696;6.186;2023-05-10T01:07:54;13.20;99.90
52543;DHT22;38449;52.696;6.186;2023-05-10T01:10:22;13.20;99.90
52543;DHT22;38449;52.696;6.186;2023-05-10T01:12:48;13.30;99.90
52543;DHT22;38449;52.696;6.186;2023-05-10T01:15:15;13.30;99.90
52543;DHT22;38449;52.696;6.186;2023-05-10T01:17:44;13.10;99.90
52543;DHT22;38449;52.696;6.186;2023-05-10T01:20:11;13.20;99.90
52543;DHT22;38449;52.696;6.186;2023-05-10T01:31:08;13.10;99.90
52543;DHT22;38449;52.696;6.186;2023-05-10T01:36:23;13.10;99.90
52543;DHT22;38449;52.696;6.186;2023-05-10T01:44:20;13.10;99.90
52543;DHT22;38449;52.696;6.186;2023-05-10T01:47:02;13.00;99.90
52543;DHT22;38449;52.696;6.186;2023-05-10T01:49:34;13.00;99.90
52543;DHT22;38449;52.696;6.186;2023-05-10T01:52:12;13.10;99.90
52543;DHT22;38449;52.696;6.186;2023-05-10T01:54:50;13.10;99.90
52543;DHT22;38449;52.696;6.186;2023-05-10T01:57:20;13.10;99.90
52543;DHT22;38449;52.696;6.186;2023-05-10T01:59:50;13.10;99.90
52543;DHT22;38449;52.696;6.186;2023-05-10T02:02:20;13.10;99.90
52543;DHT22;38449;52.696;6.186;2023-05-10T02:04:47;13.00;99.90
52543;DHT22;38449;52.696;6.186;2023-05-10T02:07:15;13.00;99.90
52543;DHT22;38449;52.696;6.186;2023-05-10T02:09:45;13.00;99.90
52543;DHT22;38449;52.696;6.186;2023-05-10T02:12:15;13.00;99.90
52543;DHT22;38449;52.696;6.186;2023-05-10T02:14:43;12.90;99.90
52543;DHT22;38449;52.696;6.186;2023-05-10T02:17:11;13.00;99.90
52543;DHT22;38449;52.696;6.186;2023-05-10T02:19:40;13.00;99.90
52543;DHT22;38449;52.696;6.186;2023-05-10T02:22:09;13.00;99.90
52543;DHT22;38449;52.696;6.186;2023-05-10T02:24:36;12.90;99.90
52543;DHT22;38449;52.696;6.186;2023-05-10T02:27:04;12.90;99.90
52543;DHT22;38449;52.696;6.186;2023-05-10T02:29:32;13.00;99.90
52543;DHT22;38449;52.696;6.186;2023-05-10T02:31:59;12.80;99.90
52543;DHT22;38449;52.696;6.186;2023-05-10T02:34:26;12.90;99.90
52543;DHT22;38449;52.696;6.186;2023-05-10T02:36:55;12.90;99.90
52543;DHT22;38449;52.696;6.186;2023-05-10T02:39:22;13.00;99.90
52543;DHT22;38449;52.696;6.186;2023-05-10T02:41:50;12.90;99.90
52543;DHT22;38449;52.696;6.186;2023-05-10T02:44:19;13.00;99.90
52543;DHT22;38449;52.696;6.186;2023-05-10T02:46:46;12.90;99.90
52543;DHT22;38449;52.696;6.186;2023-05-10T02:49:13;12.90;99.90
52543;DHT22;38449;52.696;6.186;2023-05-10T02:51:44;13.00;99.90
52543;DHT22;38449;52.696;6.186;2023-05-10T02:54:14;13.00;99.90
52543;DHT22;38449;52.696;6.186;2023-05-10T02:56:47;13.00;99.90
52543;DHT22;38449;52.696;6.186;2023-05-10T02:59:15;12.90;99.90
52543;DHT22;38449;52.696;6.186;2023-05-10T03:01:41;13.00;99.90
52543;DHT22;38449;52.696;6.186;2023-05-10T03:04:08;13.00;99.90
52543;DHT22;38449;52.696;6.186;2023-05-10T03:06:34;13.00;99.90
52543;DHT22;38449;52.696;6.186;2023-05-10T03:09:01;13.00;99.90
52543;DHT22;38449;52.696;6.186;2023-05-10T03:14:12;13.00;99.90
52543;DHT22;38449;52.696;6.186;2023-05-10T03:16:45;12.90;99.90
52543;DHT22;38449;52.696;6.186;2023-05-10T03:19:30;12.80;99.90
52543;DHT22;38449;52.696;6.186;2023-05-10T03:22:02;13.00;99.90
52543;DHT22;38449;52.696;6.186;2023-05-10T03:24:30;12.90;99.90
52543;DHT22;38449;52.696;6.186;2023-05-10T03:26:58;13.00;99.90
52543;DHT22;38449;52.696;6.186;2023-05-10T03:29:29;12.80;99.90
52543;DHT22;38449;52.696;6.186;2023-05-10T03:31:59;12.90;99.90
52543;DHT22;38449;52.696;6.186;2023-05-10T03:34:26;12.90;99.90
52543;DHT22;38449;52.696;6.186;2023-05-10T03:36:52;13.00;99.90
52543;DHT22;38449;52.696;6.186;2023-05-10T03:39:18;12.90;99.90
52543;DHT22;38449;52.696;6.186;2023-05-10T03:41:45;13.00;99.90
52543;DHT22;38449;52.696;6.186;2023-05-10T03:44:11;13.00;99.90
52543;DHT22;38449;52.696;6.186;2023-05-10T03:46:37;12.90;99.90
52543;DHT22;38449;52.696;6.186;2023-05-10T03:49:04;12.90;99.90
52543;DHT22;38449;52.696;6.186;2023-05-10T03:51:30;12.90;99.90
52543;DHT22;38449;52.696;6.186;2023-05-10T03:53:57;12.80;99.90
52543;DHT22;38449;52.696;6.186;2023-05-10T03:56:23;12.70;99.90
52543;DHT22;38449;52.696;6.186;2023-05-10T03:58:49;12.80;99.90
52543;DHT22;38449;52.696;6.186;2023-05-10T04:01:15;12.80;99.90
52543;DHT22;38449;52.696;6.186;2023-05-10T04:03:41;12.90;99.90
52543;DHT22;38449;52.696;6.186;2023-05-10T04:06:08;12.80;99.90
52543;DHT22;38449;52.696;6.186;2023-05-10T04:08:37;12.80;99.90
52543;DHT22;38449;52.696;6.186;2023-05-10T04:11:08;12.90;99.90
52543;DHT22;38449;52.696;6.186;2023-05-10T04:13:35;12.80;99.90
52543;DHT22;38449;52.696;6.186;2023-05-10T04:16:01;12.90;99.90
52543;DHT22;38449;52.696;6.186;2023-05-10T04:18:28;12.90;99.90
52543;DHT22;38449;52.696;6.186;2023-05-10T04:20:54;12.80;99.90
52543;DHT22;38449;52.696;6.186;2023-05-10T04:23:20;12.80;99.90
52543;DHT22;38449;52.696;6.186;2023-05-10T04:25:46;12.80;99.90
52543;DHT22;38449;52.696;6.186;2023-05-10T04:28:13;13.00;99.90
52543;DHT22;38449;52.696;6.186;2023-05-10T04:30:39;12.90;99.90
52543;DHT22;38449;52.696;6.186;2023-05-10T04:33:06;12.90;99.90
52543;DHT22;38449;52.696;6.186;2023-05-10T04:35:32;13.00;99.90
52543;DHT22;38449;52.696;6.186;2023-05-10T04:38:00;12.90;99.90
52543;DHT22;38449;52.696;6.186;2023-05-10T04:40:26;13.00;99.90
52543;DHT22;38449;52.696;6.186;2023-05-10T04:42:52;12.90;99.90
52543;DHT22;38449;52.696;6.186;2023-05-10T04:45:19;12.90;99.90
52543;DHT22;38449;52.696;6.186;2023-05-10T04:47:45;13.00;99.90
52543;DHT22;38449;52.696;6.186;2023-05-10T04:50:11;12.90;99.90
52543;DHT22;38449;52.696;6.186;2023-05-10T04:52:37;12.90;99.90
52543;DHT22;38449;52.696;6.186;2023-05-10T04:55:04;13.00;99.90
52543;DHT22;38449;52.696;6.186;2023-05-10T04:57:30;12.80;99.90
52543;DHT22;38449;52.696;6.186;2023-05-10T04:59:56;12.90;99.90
52543;DHT22;38449;52.696;6.186;2023-05-10T05:02:23;12.80;99.90
52543;DHT22;38449;52.696;6.186;2023-05-10T05:04:50;13.00;99.90
52543;DHT22;38449;52.696;6.186;2023-05-10T05:07:16;12.90;99.90
52543;DHT22;38449;52.696;6.186;2023-05-10T05:09:43;13.00;99.90
52543;DHT22;38449;52.696;6.186;2023-05-10T05:12:09;13.00;99.90
52543;DHT22;38449;52.696;6.186;2023-05-10T05:14:40;12.80;99.90
52543;DHT22;38449;52.696;6.186;2023-05-10T05:17:07;13.00;99.90
52543;DHT22;38449;52.696;6.186;2023-05-10T05:19:34;13.00;99.90
52543;DHT22;38449;52.696;6.186;2023-05-10T05:22:00;12.90;99.90
52543;DHT22;38449;52.696;6.186;2023-05-10T05:24:26;12.90;99.90
52543;DHT22;38449;52.696;6.186;2023-05-10T05:26:52;12.90;99.90
52543;DHT22;38449;52.696;6.186;2023-05-10T05:29:18;12.90;99.90
52543;DHT22;38449;52.696;6.186;2023-05-10T05:31:45;13.00;99.90
52543;DHT22;38449;52.696;6.186;2023-05-10T05:34:11;12.90;99.90
52543;DHT22;38449;52.696;6.186;2023-05-10T05:36:37;13.00;99.90
52543;DHT22;38449;52.696;6.186;2023-05-10T05:39:07;12.90;99.90
52543;DHT22;38449;52.696;6.186;2023-05-10T05:41:33;12.90;99.90
52543;DHT22;38449;52.696;6.186;2023-05-10T05:43:59;12.90;99.90
52543;DHT22;38449;52.696;6.186;2023-05-10T05:46:26;13.00;99.90
52543;DHT22;38449;52.696;6.186;2023-05-10T05:48:52;12.90;99.90
52543;DHT22;38449;52.696;6.186;2023-05-10T05:51:18;13.00;99.90
52543;DHT22;38449;52.696;6.186;2023-05-10T05:53:44;12.90;99.90
52543;DHT22;38449;52.696;6.186;2023-05-10T05:56:11;13.00;99.90
52543;DHT22;38449;52.696;6.186;2023-05-10T05:58:37;13.00;99.90
52543;DHT22;38449;52.696;6.186;2023-05-10T06:01:03;13.10;99.90
52543;DHT22;38449;52.696;6.186;2023-05-10T06:03:30;13.10;99.90
52543;DHT22;38449;52.696;6.186;2023-05-10T06:05:56;13.00;99.90
52543;DHT22;38449;52.696;6.186;2023-05-10T06:08:22;13.20;99.90
52543;DHT22;38449;52.696;6.186;2023-05-10T06:10:48;13.00;99.90
52543;DHT22;38449;52.696;6.186;2023-05-10T06:13:15;13.20;99.90
52543;DHT22;38449;52.696;6.186;2023-05-10T06:15:41;13.10;99.90
52543;DHT22;38449;52.696;6.186;2023-05-10T06:18:07;13.10;99.90
52543;DHT22;38449;52.696;6.186;2023-05-10T06:20:34;13.10;99.90
52543;DHT22;38449;52.696;6.186;2023-05-10T06:23:00;13.30;99.90
52543;DHT22;38449;52.696;6.186;2023-05-10T06:25:26;13.10;99.90
52543;DHT22;38449;52.696;6.186;2023-05-10T06:27:52;13.40;99.90
52543;DHT22;38449;52.696;6.186;2023-05-10T06:30:24;13.40;99.90
52543;DHT22;38449;52.696;6.186;2023-05-10T06:32:53;13.40;99.90
52543;DHT22;38449;52.696;6.186;2023-05-10T06:35:20;13.40;99.90
52543;DHT22;38449;52.696;6.186;2023-05-10T06:37:46;13.30;99.90
52543;DHT22;38449;52.696;6.186;2023-05-10T06:40:13;13.40;99.90
52543;DHT22;38449;52.696;6.186;2023-05-10T06:42:39;13.50;99.90
52543;DHT22;38449;52.696;6.186;2023-05-10T06:45:05;13.50;99.90
52543;DHT22;38449;52.696;6.186;2023-05-10T06:47:32;13.50;99.90
52543;DHT22;38449;52.696;6.186;2023-05-10T06:49:58;13.60;99.90
52543;DHT22;38449;52.696;6.186;2023-05-10T06:52:24;13.60;99.90
52543;DHT22;38449;52.696;6.186;2023-05-10T06:54:51;13.50;99.90
52543;DHT22;38449;52.696;6.186;2023-05-10T06:57:17;13.50;99.90
52543;DHT22;38449;52.696;6.186;2023-05-10T06:59:43;13.50;99.90
52543;DHT22;38449;52.696;6.186;2023-05-10T07:02:10;13.60;99.90
52543;DHT22;38449;52.696;6.186;2023-05-10T07:04:36;13.50;99.90
52543;DHT22;38449;52.696;6.186;2023-05-10T07:07:02;13.60;99.90
52543;DHT22;38449;52.696;6.186;2023-05-10T07:09:28;13.50;99.90
52543;DHT22;38449;52.696;6.186;2023-05-10T07:11:55;13.50;99.90
52543;DHT22;38449;52.696;6.186;2023-05-10T07:14:23;13.60;99.90
52543;DHT22;38449;52.696;6.186;2023-05-10T07:16:49;13.60;99.90
52543;DHT22;38449;52.696;6.186;2023-05-10T07:19:18;13.50;99.90
52543;DHT22;38449;52.696;6.186;2023-05-10T07:21:45;13.60;99.90
52543;DHT22;38449;52.696;6.186;2023-05-10T07:24:11;13.50;99.90
52543;DHT22;38449;52.696;6.186;2023-05-10T07:26:37;13.50;99.90
52543;DHT22;38449;52.696;6.186;2023-05-10T07:29:04;13.70;99.90
52543;DHT22;38449;52.696;6.186;2023-05-10T07:31:30;13.70;99.90
52543;DHT22;38449;52.696;6.186;2023-05-10T07:33:56;13.80;99.90
52543;DHT22;38449;52.696;6.186;2023-05-10T07:36:23;14.00;99.90
52543;DHT22;38449;52.696;6.186;2023-05-10T07:38:49;14.20;99.90
52543;DHT22;38449;52.696;6.186;2023-05-10T07:41:15;14.30;99.90
52543;DHT22;38449;52.696;6.186;2023-05-10T07:43:41;14.40;99.90
52543;DHT22;38449;52.696;6.186;2023-05-10T07:46:08;14.20;99.90
52543;DHT22;38449;52.696;6.186;2023-05-10T07:48:36;14.30;99.90
52543;DHT22;38449;52.696;6.186;2023-05-10T07:51:03;14.40;99.90
52543;DHT22;38449;52.696;6.186;2023-05-10T07:53:29;14.50;99.90
52543;DHT22;38449;52.696;6.186;2023-05-10T07:55:58;14.40;99.90
52543;DHT22;38449;52.696;6.186;2023-05-10T07:58:25;14.40;99.90
52543;DHT22;38449;52.696;6.186;2023-05-10T08:00:52;14.30;99.90
52543;DHT22;38449;52.696;6.186;2023-05-10T08:03:18;14.50;99.90
52543;DHT22;38449;52.696;6.186;2023-05-10T08:05:44;14.30;99.90
52543;DHT22;38449;52.696;6.186;2023-05-10T08:08:10;14.40;99.90
52543;DHT22;38449;52.696;6.186;2023-05-10T08:10:37;14.50;99.90
52543;DHT22;38449;52.696;6.186;2023-05-10T08:13:03;14.60;99.90
52543;DHT22;38449;52.696;6.186;2023-05-10T08:15:29;14.60;99.90
52543;DHT22;38449;52.696;6.186;2023-05-10T08:17:55;14.70;99.90
52543;DHT22;38449;52.696;6.186;2023-05-10T08:20:22;14.90;99.90
52543;DHT22;38449;52.696;6.186;2023-05-10T08:22:48;14.90;99.90
52543;DHT22;38449;52.696;6.186;2023-05-10T08:25:15;15.00;99.90
52543;DHT22;38449;52.696;6.186;2023-05-10T08:27:42;14.90;99.90
52543;DHT22;38449;52.696;6.186;2023-05-10T08:30:08;15.00;99.90
52543;DHT22;38449;52.696;6.186;2023-05-10T08:32:35;15.20;99.90
52543;DHT22;38449;52.696;6.186;2023-05-10T08:35:01;15.10;99.90
52543;DHT22;38449;52.696;6.186;2023-05-10T08:37:29;15.30;99.90
52543;DHT22;38449;52.696;6.186;2023-05-10T08:39:56;15.30;99.90
52543;DHT22;38449;52.696;6.186;2023-05-10T08:42:25;15.30;99.90
52543;DHT22;38449;52.696;6.186;2023-05-10T08:44:55;15.40;99.90
52543;DHT22;38449;52.696;6.186;2023-05-10T08:47:23;15.60;99.90
52543;DHT22;38449;52.696;6.186;2023-05-10T08:49:49;15.60;99.90
52543;DHT22;38449;52.696;6.186;2023-05-10T08:52:17;15.60;99.90
52543;DHT22;38449;52.696;6.186;2023-05-10T08:54:44;15.70;99.90
52543;DHT22;38449;52.696;6.186;2023-05-10T08:57:10;15.70;99.90
52543;DHT22;38449;52.696;6.186;2023-05-10T08:59:37;15.90;99.90
52543;DHT22;38449;52.696;6.186;2023-05-10T09:02:06;15.80;99.90
52543;DHT22;38449;52.696;6.186;2023-05-10T09:04:35;15.80;99.90
52543;DHT22;38449;52.696;6.186;2023-05-10T09:07:02;15.90;99.90
52543;DHT22;38449;52.696;6.186;2023-05-10T09:09:28;16.00;99.90
52543;DHT22;38449;52.696;6.186;2023-05-10T09:11:55;15.90;99.90
52543;DHT22;38449;52.696;6.186;2023-05-10T09:14:23;15.80;99.90
52543;DHT22;38449;52.696;6.186;2023-05-10T09:16:50;15.80;99.90
52543;DHT22;38449;52.696;6.186;2023-05-10T09:19:16;15.80;99.90
52543;DHT22;38449;52.696;6.186;2023-05-10T09:21:43;16.00;99.90
52543;DHT22;38449;52.696;6.186;2023-05-10T09:24:09;15.90;99.90
52543;DHT22;38449;52.696;6.186;2023-05-10T09:26:46;15.70;99.90
52543;DHT22;38449;52.696;6.186;2023-05-10T09:29:13;15.50;99.90
52543;DHT22;38449;52.696;6.186;2023-05-10T09:31:58;15.40;99.90
52543;DHT22;38449;52.696;6.186;2023-05-10T09:34:31;15.40;99.90
52543;DHT22;38449;52.696;6.186;2023-05-10T09:37:02;15.40;99.90
52543;DHT22;38449;52.696;6.186;2023-05-10T09:39:36;15.40;99.90
52543;DHT22;38449;52.696;6.186;2023-05-10T09:42:07;15.50;99.90
52543;DHT22;38449;52.696;6.186;2023-05-10T09:44:35;15.60;99.90
52543;DHT22;38449;52.696;6.186;2023-05-10T09:47:02;15.70;99.90
52543;DHT22;38449;52.696;6.186;2023-05-10T09:49:29;15.70;99.90
52543;DHT22;38449;52.696;6.186;2023-05-10T09:52:04;15.70;99.90
52543;DHT22;38449;52.696;6.186;2023-05-10T09:54:31;15.60;99.90
52543;DHT22;38449;52.696;6.186;2023-05-10T09:56:57;15.60;99.90
52543;DHT22;38449;52.696;6.186;2023-05-10T09:59:27;15.60;99.90
52543;DHT22;38449;52.696;6.186;2023-05-10T10:01:59;15.70;99.90
52543;DHT22;38449;52.696;6.186;2023-05-10T10:04:25;15.80;99.90
52543;DHT22;38449;52.696;6.186;2023-05-10T10:07:02;15.70;99.90
52543;DHT22;38449;52.696;6.186;2023-05-10T10:09:29;15.90;99.90
52543;DHT22;38449;52.696;6.186;2023-05-10T10:11:56;15.80;99.90
52543;DHT22;38449;52.696;6.186;2023-05-10T10:14:23;15.70;99.90
52543;DHT22;38449;52.696;6.186;2023-05-10T10:16:50;15.70;99.90
52543;DHT22;38449;52.696;6.186;2023-05-10T10:19:20;15.70;99.90
52543;DHT22;38449;52.696;6.186;2023-05-10T10:21:50;15.70;99.90
52543;DHT22;38449;52.696;6.186;2023-05-10T10:24:16;15.80;99.90
52543;DHT22;38449;52.696;6.186;2023-05-10T10:26:43;15.70;99.90
52543;DHT22;38449;52.696;6.186;2023-05-10T10:29:20;15.70;99.90
52543;DHT22;38449;52.696;6.186;2023-05-10T10:32:03;15.70;99.90
52543;DHT22;38449;52.696;6.186;2023-05-10T10:34:32;15.70;99.90
52543;DHT22;38449;52.696;6.186;2023-05-10T10:37:04;15.70;99.90
52543;DHT22;38449;52.696;6.186;2023-05-10T10:39:30;15.60;99.90
52543;DHT22;38449;52.696;6.186;2023-05-10T10:41:58;15.70;99.90
52543;DHT22;38449;52.696;6.186;2023-05-10T10:54:57;15.60;99.90
52543;DHT22;38449;52.696;6.186;2023-05-10T10:57:24;15.60;99.90
52543;DHT22;38449;52.696;6.186;2023-05-10T11:00:25;15.60;99.90
52543;DHT22;38449;52.696;6.186;2023-05-10T11:02:57;15.50;99.90
52543;DHT22;38449;52.696;6.186;2023-05-10T11:07:56;15.20;99.90
52543;DHT22;38449;52.696;6.186;2023-05-10T11:10:23;15.20;99.90
52543;DHT22;38449;52.696;6.186;2023-05-10T11:12:58;15.10;99.90
52543;DHT22;38449;52.696;6.186;2023-05-10T11:15:31;15.10;99.90
52543;DHT22;38449;52.696;6.186;2023-05-10T11:17:58;15.00;99.90
52543;DHT22;38449;52.696;6.186;2023-05-10T11:20:27;14.80;99.90
52543;DHT22;38449;52.696;6.186;2023-05-10T11:23:11;14.90;99.90
52543;DHT22;38449;52.696;6.186;2023-05-10T11:25:43;14.90;99.90
52543;DHT22;38449;52.696;6.186;2023-05-10T11:28:12;15.00;99.90
52543;DHT22;38449;52.696;6.186;2023-05-10T11:30:39;15.10;99.90
52543;DHT22;38449;52.696;6.186;2023-05-10T11:33:07;15.10;99.90
52543;DHT22;38449;52.696;6.186;2023-05-10T11:35:40;15.20;99.90
52543;DHT22;38449;52.696;6.186;2023-05-10T11:38:10;15.40;99.90
52543;DHT22;38449;52.696;6.186;2023-05-10T11:40:38;15.30;99.90
52543;DHT22;38449;52.696;6.186;2023-05-10T11:43:04;15.50;99.90
52543;DHT22;38449;52.696;6.186;2023-05-10T11:45:35;15.60;99.90
52543;DHT22;38449;52.696;6.186;2023-05-10T11:48:02;15.70;99.90
52543;DHT22;38449;52.696;6.186;2023-05-10T11:50:28;15.80;99.90
52543;DHT22;38449;52.696;6.186;2023-05-10T11:52:56;15.80;99.90
52543;DHT22;38449;52.696;6.186;2023-05-10T11:55:23;15.90;99.90
52543;DHT22;38449;52.696;6.186;2023-05-10T11:58:00;16.00;99.90
52543;DHT22;38449;52.696;6.186;2023-05-10T12:00:27;16.00;99.90
52543;DHT22;38449;52.696;6.186;2023-05-10T12:02:53;16.10;99.90
52543;DHT22;38449;52.696;6.186;2023-05-10T12:05:19;16.10;99.90
52543;DHT22;38449;52.696;6.186;2023-05-10T12:07:46;16.00;99.90
52543;DHT22;38449;52.696;6.186;2023-05-10T12:10:13;16.10;99.90
52543;DHT22;38449;52.696;6.186;2023-05-10T12:12:46;16.00;99.90
52543;DHT22;38449;52.696;6.186;2023-05-10T12:15:21;16.10;99.90
52543;DHT22;38449;52.696;6.186;2023-05-10T12:17:48;16.20;99.90
52543;DHT22;38449;52.696;6.186;2023-05-10T12:20:18;16.30;99.90
52543;DHT22;38449;52.696;6.186;2023-05-10T12:22:55;16.30;99.90
52543;DHT22;38449;52.696;6.186;2023-05-10T12:25:23;16.40;99.90
52543;DHT22;38449;52.696;6.186;2023-05-10T12:27:54;16.40;99.90
52543;DHT22;38449;52.696;6.186;2023-05-10T12:30:25;16.10;99.90
52543;DHT22;38449;52.696;6.186;2023-05-10T12:32:52;16.00;99.90
52543;DHT22;38449;52.696;6.186;2023-05-10T12:35:19;16.00;99.90
52543;DHT22;38449;52.696;6.186;2023-05-10T12:37:48;15.90;99.90
52543;DHT22;38449;52.696;6.186;2023-05-10T12:40:14;15.70;99.90
52543;DHT22;38449;52.696;6.186;2023-05-10T12:42:40;15.80;99.90
52543;DHT22;38449;52.696;6.186;2023-05-10T12:45:08;15.90;99.90
52543;DHT22;38449;52.696;6.186;2023-05-10T12:47:34;16.00;99.90
52543;DHT22;38449;52.696;6.186;2023-05-10T12:50:01;16.00;99.90
52543;DHT22;38449;52.696;6.186;2023-05-10T12:52:29;16.10;99.90
52543;DHT22;38449;52.696;6.186;2023-05-10T12:54:55;16.10;99.90
52543;DHT22;38449;52.696;6.186;2023-05-10T12:57:22;16.20;99.90
52543;DHT22;38449;52.696;6.186;2023-05-10T12:59:48;16.20;99.90
52543;DHT22;38449;52.696;6.186;2023-05-10T13:02:15;15.90;99.90
52543;DHT22;38449;52.696;6.186;2023-05-10T13:04:44;15.90;99.90
52543;DHT22;38449;52.696;6.186;2023-05-10T13:07:12;15.80;99.90
52543;DHT22;38449;52.696;6.186;2023-05-10T13:09:38;15.70;99.90
52543;DHT22;38449;52.696;6.186;2023-05-10T13:12:05;15.60;99.90
52543;DHT22;38449;52.696;6.186;2023-05-10T13:14:31;15.50;99.90
52543;DHT22;38449;52.696;6.186;2023-05-10T13:16:57;15.50;99.90
52543;DHT22;38449;52.696;6.186;2023-05-10T13:19:24;15.40;99.90
52543;DHT22;38449;52.696;6.186;2023-05-10T13:21:50;15.40;99.90
52543;DHT22;38449;52.696;6.186;2023-05-10T13:24:16;15.40;99.90
52543;DHT22;38449;52.696;6.186;2023-05-10T13:26:43;15.40;99.90
52543;DHT22;38449;52.696;6.186;2023-05-10T13:29:09;15.40;99.90
52543;DHT22;38449;52.696;6.186;2023-05-10T13:31:36;15.40;99.90
52543;DHT22;38449;52.696;6.186;2023-05-10T13:34:03;15.40;99.90
52543;DHT22;38449;52.696;6.186;2023-05-10T13:36:29;15.30;99.90
52543;DHT22;38449;52.696;6.186;2023-05-10T13:38:55;15.40;99.90
52543;DHT22;38449;52.696;6.186;2023-05-10T13:41:21;15.30;99.90
52543;DHT22;38449;52.696;6.186;2023-05-10T13:43:48;15.40;99.90
52543;DHT22;38449;52.696;6.186;2023-05-10T13:46:15;15.40;99.90
52543;DHT22;38449;52.696;6.186;2023-05-10T13:48:41;15.40;99.90
52543;DHT22;38449;52.696;6.186;2023-05-10T13:51:07;15.60;99.90
52543;DHT22;38449;52.696;6.186;2023-05-10T13:53:33;15.60;99.90
52543;DHT22;38449;52.696;6.186;2023-05-10T13:56:00;15.60;99.90
52543;DHT22;38449;52.696;6.186;2023-05-10T13:58:26;15.70;99.90
52543;DHT22;38449;52.696;6.186;2023-05-10T14:00:52;15.70;99.90
52543;DHT22;38449;52.696;6.186;2023-05-10T14:03:19;15.90;99.90
52543;DHT22;38449;52.696;6.186;2023-05-10T14:05:45;16.00;99.90
52543;DHT22;38449;52.696;6.186;2023-05-10T14:08:11;16.10;99.90
52543;DHT22;38449;52.696;6.186;2023-05-10T14:10:39;16.20;99.90
52543;DHT22;38449;52.696;6.186;2023-05-10T14:13:05;16.40;99.90
52543;DHT22;38449;52.696;6.186;2023-05-10T14:15:32;16.40;99.90
52543;DHT22;38449;52.696;6.186;2023-05-10T14:17:58;16.50;99.90
52543;DHT22;38449;52.696;6.186;2023-05-10T14:20:24;16.50;99.90
52543;DHT22;38449;52.696;6.186;2023-05-10T14:22:51;16.70;99.90
52543;DHT22;38449;52.696;6.186;2023-05-10T14:25:17;16.70;99.90
52543;DHT22;38449;52.696;6.186;2023-05-10T14:27:43;16.70;99.90
52543;DHT22;38449;52.696;6.186;2023-05-10T14:30:10;16.50;99.90
52543;DHT22;38449;52.696;6.186;2023-05-10T14:32:36;16.70;99.90
52543;DHT22;38449;52.696;6.186;2023-05-10T14:35:03;16.70;99.90
52543;DHT22;38449;52.696;6.186;2023-05-10T14:37:29;16.80;99.90
52543;DHT22;38449;52.696;6.186;2023-05-10T14:39:56;16.80;99.90
52543;DHT22;38449;52.696;6.186;2023-05-10T14:42:22;16.90;99.90
52543;DHT22;38449;52.696;6.186;2023-05-10T14:44:48;16.80;99.90
52543;DHT22;38449;52.696;6.186;2023-05-10T14:47:14;16.70;99.90
52543;DHT22;38449;52.696;6.186;2023-05-10T14:49:41;16.70;99.90
52543;DHT22;38449;52.696;6.186;2023-05-10T14:52:07;16.80;99.90
52543;DHT22;38449;52.696;6.186;2023-05-10T14:54:33;16.80;99.90
52543;DHT22;38449;52.696;6.186;2023-05-10T14:56:59;16.90;99.90
52543;DHT22;38449;52.696;6.186;2023-05-10T14:59:26;16.90;99.90
52543;DHT22;38449;52.696;6.186;2023-05-10T15:01:52;16.80;99.90
52543;DHT22;38449;52.696;6.186;2023-05-10T15:04:18;16.80;99.90
52543;DHT22;38449;52.696;6.186;2023-05-10T15:06:45;16.80;99.90
52543;DHT22;38449;52.696;6.186;2023-05-10T15:09:11;17.00;99.90
52543;DHT22;38449;52.696;6.186;2023-05-10T15:11:37;16.90;99.90
52543;DHT22;38449;52.696;6.186;2023-05-10T15:14:03;16.90;99.90
52543;DHT22;38449;52.696;6.186;2023-05-10T15:16:30;16.90;99.90
52543;DHT22;38449;52.696;6.186;2023-05-10T15:18:56;16.90;99.90
52543;DHT22;38449;52.696;6.186;2023-05-10T15:21:22;17.00;99.90
52543;DHT22;38449;52.696;6.186;2023-05-10T15:23:48;16.90;99.90
52543;DHT22;38449;52.696;6.186;2023-05-10T15:26:15;16.80;99.90
52543;DHT22;38449;52.696;6.186;2023-05-10T15:28:41;16.80;99.90
52543;DHT22;38449;52.696;6.186;2023-05-10T15:31:07;16.70;99.90
52543;DHT22;38449;52.696;6.186;2023-05-10T15:33:33;16.70;99.90
52543;DHT22;38449;52.696;6.186;2023-05-10T15:35:59;16.80;99.90
52543;DHT22;38449;52.696;6.186;2023-05-10T15:38:26;16.70;99.90
52543;DHT22;38449;52.696;6.186;2023-05-10T15:40:56;16.80;99.90
52543;DHT22;38449;52.696;6.186;2023-05-10T15:43:22;16.70;99.90
52543;DHT22;38449;52.696;6.186;2023-05-10T15:45:49;16.70;99.90
52543;DHT22;38449;52.696;6.186;2023-05-10T15:48:15;16.60;99.90
52543;DHT22;38449;52.696;6.186;2023-05-10T15:50:42;16.60;99.90
52543;DHT22;38449;52.696;6.186;2023-05-10T15:53:08;16.60;99.90
52543;DHT22;38449;52.696;6.186;2023-05-10T15:55:34;16.50;99.90
52543;DHT22;38449;52.696;6.186;2023-05-10T15:58:02;16.50;99.90
52543;DHT22;38449;52.696;6.186;2023-05-10T16:00:28;16.50;99.90
52543;DHT22;38449;52.696;6.186;2023-05-10T16:02:55;16.40;99.90
52543;DHT22;38449;52.696;6.186;2023-05-10T16:05:21;16.50;99.90